createdAt,value
2022-11-05T04:33:16.356Z,6.85
2022-11-05T04:35:48.592Z,6.13
2022-11-05T04:38:20.021Z,4.75
2022-11-05T04:40:48.616Z,3.85
2022-11-05T04:43:19.055Z,5.38
2022-11-05T04:45:46.945Z,4.03
2022-11-05T04:48:14.480Z,5.10
2022-11-05T04:50:41.969Z,5.97
2022-11-05T04:53:12.936Z,4.95
2022-11-05T04:55:40.726Z,5.75
2022-11-05T04:58:09.408Z,5.88
2022-11-05T05:00:36.889Z,5.30
2022-11-05T05:03:04.489Z,4.93
2022-11-05T05:05:32.026Z,4.50
2022-11-05T05:08:03.301Z,6.50
2022-11-05T05:10:31.950Z,4.57
2022-11-05T05:12:59.392Z,6.82
2022-11-05T05:15:26.783Z,4.07
2022-11-05T05:17:54.269Z,6.30
2022-11-05T05:20:40.221Z,5.03
2022-11-05T05:23:07.887Z,6.50
2022-11-05T05:25:35.697Z,5.38
2022-11-05T05:28:03.082Z,4.80
2022-11-05T05:30:30.514Z,5.55
2022-11-05T05:33:02.066Z,5.10
2022-11-05T05:37:57.038Z,7.03
2022-11-05T05:40:24.758Z,6.03
2022-11-05T05:42:56.095Z,5.65
2022-11-05T05:45:23.600Z,5.22
2022-11-05T05:47:51.047Z,7.85
2022-11-05T05:56:42.395Z,6.07
2022-11-05T05:59:10.068Z,4.97
2022-11-05T06:01:38.033Z,5.15
2022-11-05T06:04:05.787Z,7.85
2022-11-05T06:06:33.399Z,6.03
2022-11-05T06:09:01.075Z,5.90
2022-11-05T06:11:28.723Z,5.20
2022-11-05T06:13:56.304Z,7.10
2022-11-05T06:16:24.047Z,5.80
2022-11-05T06:18:51.727Z,6.07
2022-11-05T06:21:19.281Z,5.40
2022-11-05T06:23:48.348Z,4.57
2022-11-05T06:26:18.599Z,4.93
2022-11-05T06:28:46.470Z,5.32
2022-11-05T06:31:14.694Z,5.00
2022-11-05T06:33:42.320Z,5.07
2022-11-05T06:36:15.679Z,6.63
2022-11-05T06:38:43.465Z,5.18
2022-11-05T06:41:11.094Z,4.50
2022-11-05T06:43:39.010Z,4.38
2022-11-05T06:46:06.861Z,4.65
2022-11-05T06:48:35.082Z,6.57
2022-11-05T06:51:03.226Z,5.95
2022-11-05T06:53:31.922Z,4.80
2022-11-05T06:56:56.362Z,6.13
2022-11-05T06:59:23.993Z,5.97
2022-11-05T07:01:51.559Z,6.22
2022-11-05T07:04:19.154Z,4.32
2022-11-05T07:06:46.784Z,4.75
2022-11-05T07:09:14.956Z,5.50
2022-11-05T07:11:42.554Z,5.22
2022-11-05T07:14:10.095Z,4.90
2022-11-05T07:16:41.701Z,5.95
2022-11-05T07:21:39.065Z,4.88
2022-11-05T07:25:49.276Z,4.43
2022-11-05T07:28:16.752Z,3.78
2022-11-05T07:30:44.493Z,4.45
2022-11-05T07:33:12.384Z,2.90
2022-11-05T07:35:40.012Z,3.17
2022-11-05T07:38:11.053Z,3.45
2022-11-05T07:40:38.636Z,3.13
2022-11-05T07:43:06.081Z,3.50
2022-11-05T07:45:33.558Z,3.65
2022-11-05T07:48:03.231Z,3.35
2022-11-05T07:50:35.461Z,4.35
2022-11-05T07:53:07.990Z,3.53
2022-11-05T07:55:36.056Z,3.58
2022-11-05T07:58:04.078Z,3.75
2022-11-05T08:00:32.350Z,3.55
2022-11-05T08:03:11.957Z,5.22
2022-11-05T08:05:43.252Z,4.53
2022-11-05T08:08:12.853Z,3.05
2022-11-05T08:10:41.295Z,3.35
2022-11-05T08:13:09.932Z,4.47
2022-11-05T08:15:40.793Z,3.05
2022-11-05T08:18:14.262Z,3.17
2022-11-05T08:20:51.097Z,3.88
2022-11-05T08:23:23.242Z,4.13
2022-11-05T08:25:50.817Z,3.88
2022-11-05T08:28:19.851Z,3.58
2022-11-05T08:30:51.594Z,3.80
2022-11-05T08:33:20.940Z,3.00
2022-11-05T08:35:48.894Z,3.78
2022-11-05T08:38:18.712Z,3.85
2022-11-05T08:40:58.225Z,3.42
2022-11-05T08:43:27.326Z,4.13
2022-11-05T08:46:41.571Z,3.60
2022-11-05T08:49:09.662Z,3.20
2022-11-05T08:51:38.534Z,4.00
2022-11-05T08:54:06.185Z,4.13
2022-11-05T08:56:42.006Z,3.55
2022-11-05T08:59:12.288Z,3.47
2022-11-05T09:01:39.977Z,2.90
2022-11-05T09:04:07.862Z,3.67
2022-11-05T09:06:35.427Z,3.30
2022-11-05T09:09:02.986Z,3.55
2022-11-05T09:11:56.927Z,4.82
2022-11-05T09:14:18.024Z,3.97
2022-11-05T09:16:45.506Z,4.05
2022-11-05T09:19:12.890Z,2.92
2022-11-05T09:21:41.127Z,3.53
2022-11-05T09:25:47.386Z,2.70
2022-11-05T09:28:21.370Z,2.65
2022-11-05T09:30:55.788Z,3.78
2022-11-05T09:33:25.779Z,2.85
2022-11-05T09:35:59.374Z,3.47
2022-11-05T09:38:26.908Z,3.22
2022-11-05T09:41:07.522Z,3.25
2022-11-05T09:43:49.856Z,3.42
2022-11-05T09:46:21.830Z,3.80
2022-11-05T09:49:45.806Z,2.70
2022-11-05T09:53:06.858Z,3.75
2022-11-05T10:00:25.314Z,3.03
2022-11-05T10:03:16.161Z,4.15
2022-11-05T10:06:16.448Z,4.18
2022-11-05T10:18:21.795Z,3.28
2022-11-05T10:20:55.832Z,2.05
2022-11-05T10:23:47.791Z,2.00
2022-11-05T10:43:07.513Z,1.77
2022-11-05T10:50:09.593Z,1.55
2022-11-05T10:53:15.082Z,2.35
2022-11-05T10:56:40.766Z,1.58
2022-11-05T10:59:24.277Z,1.90
2022-11-05T11:02:24.734Z,1.60
2022-11-05T11:05:33.030Z,2.22
2022-11-05T11:08:08.921Z,1.83
2022-11-05T11:33:24.150Z,1.10
2022-11-05T11:44:43.952Z,1.63
2022-11-05T11:47:38.771Z,0.75
2022-11-05T11:50:32.023Z,1.10
2022-11-05T11:53:47.322Z,0.98
2022-11-05T11:57:12.845Z,0.90
2022-11-05T12:30:29.663Z,0.90
2022-11-05T12:33:27.549Z,0.88
2022-11-05T12:36:03.924Z,1.48
2022-11-05T12:39:04.436Z,1.73
2022-11-05T12:45:13.350Z,1.70
2022-11-05T12:48:08.745Z,1.80
2022-11-05T13:06:30.653Z,1.60
2022-11-05T14:32:44.093Z,1.60
2022-11-05T14:53:28.816Z,1.60
2022-11-05T14:56:56.658Z,1.70
2022-11-05T14:59:31.568Z,2.42
2022-11-05T15:02:15.820Z,2.05
2022-11-05T15:04:47.495Z,1.52
2022-11-05T15:10:19.357Z,1.98
2022-11-05T15:13:06.143Z,2.05
2022-11-05T15:15:50.905Z,2.30
2022-11-05T15:18:46.182Z,2.28
2022-11-05T15:24:46.029Z,1.60
2022-11-05T15:27:33.706Z,2.35
2022-11-05T15:30:33.050Z,2.22
2022-11-05T15:34:44.416Z,1.42
2022-11-05T18:57:37.426Z,3.28
2022-11-05T19:00:05.697Z,3.65
